Time;durP1;ratioP1;P1;durP2;ratioP2;P2;SDS_P1;SDS_P2;PMS_P1;PMS_P2;Temp;Humidity;BMP_temperature;BMP_pressure;BME280_temperature;BME280_humidity;BME280_pressure;Samples;Min_cycle;Max_cycle;Signal;HPM_P1;HPM_P2
2022/08/26 00:00:47;;;;;;;62.03;46.20;;;20.30;99.90;;;;;;5073876;28;20059;-83
2022/08/26 00:03:14;;;;;;;68.25;46.97;;;20.30;99.90;;;;;;5073641;28;20128;-81
2022/08/26 00:05:40;;;;;;;64.22;45.58;;;20.30;99.90;;;;;;5073154;28;20042;-82
2022/08/26 00:08:07;;;;;;;68.82;45.33;;;20.30;99.90;;;;;;5056108;28;20534;-83
2022/08/26 00:10:32;;;;;;;66.40;45.65;;;20.20;99.90;;;;;;5073649;28;20680;-81
2022/08/26 00:12:58;;;;;;;69.78;47.28;;;20.20;99.90;;;;;;5072393;28;20080;-83
2022/08/26 00:15:24;;;;;;;72.38;48.63;;;20.20;99.90;;;;;;5072456;28;20041;-82
2022/08/26 00:17:51;;;;;;;72.10;48.38;;;20.20;99.90;;;;;;5056490;28;20182;-82
2022/08/26 00:20:20;;;;;;;71.57;50.58;;;20.10;99.90;;;;;;5072434;28;20423;-83
2022/08/26 00:22:46;;;;;;;74.60;51.25;;;20.10;99.90;;;;;;5072972;28;20107;-83
2022/08/26 00:25:13;;;;;;;78.63;51.95;;;20.10;99.90;;;;;;5095912;28;20039;-79
2022/08/26 00:27:40;;;;;;;78.70;52.22;;;20.10;99.90;;;;;;5098418;28;20109;-77
2022/08/26 00:30:10;;;;;;;78.53;50.20;;;20.00;99.90;;;;;;5095858;28;20067;-82
2022/08/26 00:32:36;;;;;;;74.57;50.88;;;20.00;99.90;;;;;;5055796;28;20037;-81
2022/08/26 00:35:03;;;;;;;68.18;48.15;;;20.00;99.90;;;;;;5072185;28;20498;-80
2022/08/26 00:37:28;;;;;;;69.80;48.47;;;20.00;99.90;;;;;;5055906;28;20492;-81
2022/08/26 00:39:54;;;;;;;71.35;46.45;;;19.90;99.90;;;;;;5072760;28;20110;-81
2022/08/26 00:42:20;;;;;;;72.63;47.15;;;19.90;99.90;;;;;;5073625;28;20037;-81
2022/08/26 00:44:45;;;;;;;64.57;43.80;;;19.90;99.90;;;;;;5073971;28;20102;-81
2022/08/26 00:47:23;;;;;;;71.75;42.72;;;20.00;99.90;;;;;;5073019;28;20037;-81
2022/08/26 00:49:50;;;;;;;65.40;43.42;;;20.00;99.90;;;;;;5073447;28;20095;-81
2022/08/26 00:52:20;;;;;;;64.50;41.22;;;20.10;99.90;;;;;;5055091;28;20051;-81
2022/08/26 00:55:08;;;;;;;61.80;38.97;;;20.10;99.90;;;;;;5072065;28;20044;-81
2022/08/26 00:57:35;;;;;;;61.20;38.22;;;20.10;99.90;;;;;;5055345;28;20547;-80
2022/08/26 01:00:06;;;;;;;58.83;39.92;;;20.10;99.90;;;;;;5071449;28;20076;-81
2022/08/26 01:02:32;;;;;;;58.83;39.03;;;20.10;99.90;;;;;;5073415;28;20044;-82
2022/08/26 01:05:01;;;;;;;58.65;36.97;;;20.20;99.90;;;;;;5055383;28;20040;-81
2022/08/26 01:07:29;;;;;;;60.42;37.00;;;20.20;99.90;;;;;;5072709;28;20052;-81
2022/08/26 01:09:56;;;;;;;57.85;36.35;;;20.20;99.90;;;;;;5054358;28;20491;-81
2022/08/26 01:12:23;;;;;;;53.63;36.42;;;20.20;99.90;;;;;;5054666;28;20361;-81
2022/08/26 01:14:49;;;;;;;55.25;36.92;;;20.30;99.90;;;;;;5070866;28;20456;-80
2022/08/26 01:17:16;;;;;;;59.50;34.72;;;20.30;99.90;;;;;;5072342;28;20076;-82
2022/08/26 01:19:45;;;;;;;56.22;34.90;;;20.30;99.90;;;;;;5070848;28;20127;-81
2022/08/26 01:22:49;;;;;;;54.03;35.13;;;20.30;99.90;;;;;;5055175;28;20032;-81
2022/08/26 01:25:16;;;;;;;49.17;34.03;;;20.30;99.90;;;;;;5000835;28;20144;-82
2022/08/26 01:27:42;;;;;;;46.28;31.13;;;20.30;99.90;;;;;;5055224;28;20551;-81
2022/08/26 01:30:10;;;;;;;49.65;31.42;;;20.30;99.90;;;;;;5054561;28;20041;-80
2022/08/26 01:32:36;;;;;;;52.40;31.92;;;20.30;99.90;;;;;;5071400;28;20045;-81
2022/08/26 01:35:02;;;;;;;52.00;31.38;;;20.40;99.90;;;;;;5054198;28;20487;-80
2022/08/26 01:37:33;;;;;;;45.00;29.60;;;20.40;99.90;;;;;;5072459;28;20047;-80
2022/08/26 01:39:59;;;;;;;49.67;29.60;;;20.40;99.90;;;;;;5072078;28;20166;-81
2022/08/26 01:42:26;;;;;;;48.80;29.35;;;20.40;99.90;;;;;;5054364;28;20139;-81
2022/08/26 01:44:56;;;;;;;48.33;30.80;;;20.40;99.90;;;;;;5055501;28;20047;-81
2022/08/26 01:47:25;;;;;;;46.65;29.27;;;20.40;99.90;;;;;;5073182;28;20053;-81
2022/08/26 01:49:55;;;;;;;46.55;28.25;;;20.40;99.90;;;;;;5071845;28;20070;-80
2022/08/26 01:52:26;;;;;;;45.38;27.98;;;20.40;99.90;;;;;;5073364;28;20040;-81
2022/08/26 01:54:54;;;;;;;42.55;27.23;;;20.40;99.90;;;;;;5072856;28;20403;-81
2022/08/26 01:57:21;;;;;;;40.45;26.83;;;20.40;99.90;;;;;;5073306;28;20189;-81
2022/08/26 01:59:49;;;;;;;36.92;25.77;;;20.40;99.90;;;;;;5072979;28;20041;-81
2022/08/26 02:02:14;;;;;;;42.60;25.80;;;20.40;99.90;;;;;;5071573;28;20072;-80
2022/08/26 02:04:48;;;;;;;36.20;24.33;;;20.40;99.90;;;;;;5054318;28;20125;-81
2022/08/26 02:07:16;;;;;;;42.33;24.02;;;20.40;99.90;;;;;;5071156;28;20036;-80
2022/08/26 02:09:42;;;;;;;37.78;23.48;;;20.40;99.90;;;;;;5071185;28;20123;-81
2022/08/26 02:12:10;;;;;;;37.00;24.27;;;20.40;99.90;;;;;;5054819;28;20072;-81
2022/08/26 02:14:40;;;;;;;35.17;22.08;;;20.40;99.90;;;;;;5070840;28;20040;-81
2022/08/26 02:17:08;;;;;;;35.80;21.20;;;20.40;99.90;;;;;;5073196;28;20033;-80
2022/08/26 02:19:38;;;;;;;30.33;21.10;;;20.40;99.90;;;;;;5055679;28;20045;-80
2022/08/26 02:22:10;;;;;;;36.33;22.17;;;20.40;99.90;;;;;;5073496;28;20043;-81
2022/08/26 02:24:54;;;;;;;33.55;21.45;;;20.40;99.90;;;;;;5055612;28;20128;-81
2022/08/26 02:27:38;;;;;;;38.58;20.33;;;20.40;99.90;;;;;;5076215;28;20098;-80
2022/08/26 02:30:13;;;;;;;32.03;19.83;;;20.40;99.90;;;;;;5075816;28;20041;-80
2022/08/26 02:32:39;;;;;;;45.38;21.30;;;20.40;99.90;;;;;;5075585;28;20119;-81
2022/08/26 02:35:06;;;;;;;31.08;19.48;;;20.40;99.90;;;;;;5076333;28;20032;-81
2022/08/26 02:37:32;;;;;;;36.80;19.48;;;20.30;99.90;;;;;;5076342;28;20044;-81
2022/08/26 02:39:57;;;;;;;37.70;16.95;;;20.30;99.90;;;;;;5058954;28;20045;-81
2022/08/26 02:42:23;;;;;;;30.02;17.38;;;20.30;99.90;;;;;;5075878;28;20079;-81
2022/08/26 02:44:48;;;;;;;31.73;17.13;;;20.30;99.90;;;;;;5076015;28;20044;-81
2022/08/26 02:47:14;;;;;;;28.00;17.25;;;20.30;99.90;;;;;;5058842;28;20037;-81
2022/08/26 02:49:44;;;;;;;30.75;17.73;;;20.30;99.90;;;;;;5058681;28;20048;-83
2022/08/26 02:52:11;;;;;;;28.58;16.85;;;20.40;99.90;;;;;;5073402;28;20047;-82
2022/08/26 02:54:36;;;;;;;29.05;17.38;;;20.30;99.90;;;;;;5056873;28;20040;-83
2022/08/26 02:57:02;;;;;;;35.42;17.40;;;20.40;99.90;;;;;;5075035;28;20453;-82
2022/08/26 02:59:28;;;;;;;32.20;15.57;;;20.40;99.90;;;;;;5073425;28;20040;-83
2022/08/26 03:01:54;;;;;;;23.17;14.82;;;20.30;99.90;;;;;;5074115;28;20040;-81
2022/08/26 03:04:20;;;;;;;25.38;13.88;;;20.40;99.90;;;;;;5074210;28;20109;-82
2022/08/26 03:06:48;;;;;;;28.85;15.18;;;20.40;99.90;;;;;;5074925;28;20480;-82
2022/08/26 03:09:13;;;;;;;24.15;13.93;;;20.40;99.90;;;;;;5073276;28;20056;-82
2022/08/26 03:11:39;;;;;;;28.52;14.52;;;20.40;99.90;;;;;;5074469;28;20047;-83
2022/08/26 03:14:06;;;;;;;23.08;12.93;;;20.30;99.90;;;;;;5073081;28;20040;-82
2022/08/26 03:16:34;;;;;;;22.27;12.35;;;20.30;99.90;;;;;;5074472;28;20045;-83
2022/08/26 03:19:01;;;;;;;19.75;13.10;;;20.30;99.90;;;;;;5074216;28;20040;-83
2022/08/26 03:21:27;;;;;;;24.23;13.38;;;20.30;99.90;;;;;;5072853;28;20044;-83
2022/08/26 03:23:53;;;;;;;23.63;13.30;;;20.30;99.90;;;;;;5056064;28;20404;-82
2022/08/26 03:26:19;;;;;;;23.13;12.70;;;20.30;99.90;;;;;;5073104;28;20037;-82
2022/08/26 03:31:29;;;;;;;25.63;12.98;;;20.30;99.90;;;;;;5072531;28;20056;-82
2022/08/26 03:33:56;;;;;;;31.02;13.63;;;20.30;99.90;;;;;;5073968;28;20036;-82
2022/08/26 03:36:22;;;;;;;21.95;13.40;;;20.20;99.90;;;;;;5071672;28;20040;-83
2022/08/26 03:38:47;;;;;;;29.75;13.35;;;20.30;99.90;;;;;;5072581;28;20079;-82
2022/08/26 03:41:13;;;;;;;26.33;14.13;;;20.20;99.90;;;;;;5073829;28;20068;-83
2022/08/26 03:43:39;;;;;;;21.17;12.85;;;20.20;99.90;;;;;;5072280;28;20502;-84
2022/08/26 03:46:06;;;;;;;27.73;13.45;;;20.20;99.90;;;;;;5072440;28;20041;-82
2022/08/26 03:48:32;;;;;;;22.30;13.05;;;20.20;99.90;;;;;;5073667;28;20092;-83
2022/08/26 03:50:59;;;;;;;21.83;12.68;;;20.20;99.90;;;;;;5073451;28;20387;-83
2022/08/26 03:53:25;;;;;;;25.50;13.25;;;20.20;99.90;;;;;;5073727;28;20623;-83
2022/08/26 03:55:51;;;;;;;22.98;11.90;;;20.20;99.90;;;;;;5072243;28;20557;-81
2022/08/26 03:58:17;;;;;;;25.17;11.65;;;20.30;99.90;;;;;;5072522;28;20044;-83
2022/08/26 04:00:42;;;;;;;20.13;12.13;;;20.20;99.90;;;;;;5055485;28;20052;-83
2022/08/26 04:03:10;;;;;;;25.42;12.00;;;20.30;99.90;;;;;;5073360;28;20074;-84
2022/08/26 04:05:36;;;;;;;19.75;11.30;;;20.30;99.90;;;;;;5072264;28;20056;-82
2022/08/26 04:08:02;;;;;;;22.17;11.02;;;20.30;99.90;;;;;;5072115;28;20028;-82
2022/08/26 04:10:28;;;;;;;23.20;10.35;;;20.30;99.90;;;;;;5073007;28;20101;-83
2022/08/26 04:12:53;;;;;;;17.92;10.63;;;20.30;99.90;;;;;;5071734;28;20033;-83
2022/08/26 04:15:20;;;;;;;25.92;10.77;;;20.30;99.90;;;;;;5055095;28;20036;-83
2022/08/26 04:17:46;;;;;;;21.33;10.88;;;20.30;99.90;;;;;;5073247;28;20403;-82
2022/08/26 04:20:17;;;;;;;26.75;11.35;;;20.30;99.90;;;;;;5072711;28;20040;-81
2022/08/26 04:22:44;;;;;;;15.80;10.75;;;20.30;99.90;;;;;;5073496;28;20141;-83
2022/08/26 04:25:11;;;;;;;22.02;10.57;;;20.30;99.90;;;;;;5071612;28;20055;-84
2022/08/26 04:27:37;;;;;;;20.70;10.80;;;20.30;99.90;;;;;;5071708;28;20409;-83
2022/08/26 04:30:04;;;;;;;17.35;9.93;;;20.30;99.90;;;;;;5072352;28;20044;-83
2022/08/26 04:32:30;;;;;;;25.95;10.73;;;20.20;99.90;;;;;;5072799;28;20037;-83
2022/08/26 04:34:55;;;;;;;22.02;10.13;;;20.30;99.90;;;;;;5071876;28;20052;-83
2022/08/26 04:37:21;;;;;;;20.73;10.10;;;20.20;99.90;;;;;;5071351;28;20049;-83
2022/08/26 04:39:51;;;;;;;19.77;9.13;;;20.30;99.90;;;;;;5072551;28;20036;-82
2022/08/26 04:42:17;;;;;;;19.35;9.40;;;20.20;99.90;;;;;;5071178;28;20468;-83
2022/08/26 04:44:42;;;;;;;17.73;8.70;;;20.30;99.90;;;;;;5071471;28;20041;-83
2022/08/26 04:47:08;;;;;;;16.58;8.57;;;20.30;99.90;;;;;;5086073;28;20032;-78
2022/08/26 04:49:34;;;;;;;16.55;8.55;;;20.30;99.90;;;;;;5098672;28;20472;-78
2022/08/26 04:51:59;;;;;;;20.42;8.10;;;20.20;99.90;;;;;;5097129;28;20032;-82
2022/08/26 04:54:25;;;;;;;15.43;8.15;;;20.30;99.90;;;;;;5084002;28;20028;-82
2022/08/26 04:56:51;;;;;;;17.40;7.28;;;20.30;99.90;;;;;;5072247;28;20077;-82
2022/08/26 04:59:17;;;;;;;16.40;7.50;;;20.40;99.90;;;;;;5072240;28;20094;-82
2022/08/26 05:01:47;;;;;;;23.63;7.63;;;20.40;99.90;;;;;;5071956;28;20048;-82
2022/08/26 05:04:13;;;;;;;19.83;7.75;;;20.50;99.90;;;;;;5072393;28;20093;-82
2022/08/26 05:06:39;;;;;;;15.23;7.72;;;20.50;99.90;;;;;;5055974;28;20125;-82
2022/08/26 05:09:04;;;;;;;18.88;7.60;;;20.50;99.90;;;;;;5071886;28;20597;-82
2022/08/26 05:11:31;;;;;;;16.33;6.88;;;20.60;99.90;;;;;;5070851;28;20041;-84
2022/08/26 05:13:56;;;;;;;18.95;7.88;;;20.60;99.90;;;;;;5070578;28;20040;-84
2022/08/26 05:16:22;;;;;;;17.92;6.72;;;20.60;99.90;;;;;;5054138;28;20131;-83
2022/08/26 05:18:48;;;;;;;14.57;6.57;;;20.60;99.90;;;;;;5070386;28;20131;-83
2022/08/26 05:21:19;;;;;;;17.20;6.30;;;20.70;99.90;;;;;;5070024;28;20097;-83
2022/08/26 05:23:46;;;;;;;11.70;6.25;;;20.70;99.90;;;;;;5055884;28;20059;-83
2022/08/26 05:26:12;;;;;;;15.73;6.90;;;20.70;99.90;;;;;;5068735;28;20044;-83
2022/08/26 05:28:37;;;;;;;13.20;6.80;;;20.70;99.90;;;;;;5071181;28;20047;-83
2022/08/26 05:31:25;;;;;;;15.85;6.03;;;20.80;99.90;;;;;;5074888;28;20415;-83
2022/08/26 05:33:51;;;;;;;12.63;6.80;;;20.80;99.90;;;;;;5076091;28;20577;-84
2022/08/26 05:36:21;;;;;;;18.27;6.40;;;20.80;99.90;;;;;;5070161;28;20093;-83
2022/08/26 05:38:47;;;;;;;12.23;6.55;;;20.90;99.90;;;;;;5053469;28;20043;-83
2022/08/26 05:41:19;;;;;;;19.13;6.40;;;20.90;99.90;;;;;;5053406;28;20083;-84
2022/08/26 05:43:45;;;;;;;;;;;21.00;99.90;;;;;;5069023;28;20086;-78
2022/08/26 05:46:10;;;;;;;15.05;6.47;;;21.00;99.90;;;;;;5070374;28;19959;-77
2022/08/26 05:48:36;;;;;;;13.88;5.68;;;21.00;99.90;;;;;;5069407;28;20045;-78
2022/08/26 05:51:07;;;;;;;12.70;6.25;;;20.90;99.90;;;;;;5053030;28;20063;-79
2022/08/26 05:53:33;;;;;;;11.52;5.95;;;20.90;99.90;;;;;;5069167;28;20037;-79
2022/08/26 05:55:59;;;;;;;20.73;5.93;;;20.90;99.90;;;;;;5075235;28;20033;-78
2022/08/26 05:58:26;;;;;;;12.30;5.25;;;20.90;99.90;;;;;;5070899;28;20036;-77
2022/08/26 06:01:13;;;;;;;15.13;6.45;;;20.90;99.90;;;;;;5070001;28;20128;-79
2022/08/26 06:03:43;;;;;;;15.75;5.20;;;20.80;99.90;;;;;;5072544;28;20044;-78
2022/08/26 06:06:14;;;;;;;13.23;5.35;;;20.80;99.90;;;;;;5070572;28;20499;-78
2022/08/26 06:08:41;;;;;;;12.85;5.00;;;20.70;99.90;;;;;;5071206;28;20040;-79
2022/08/26 06:11:09;;;;;;;12.70;4.90;;;20.70;99.90;;;;;;5070705;28;20032;-79
2022/08/26 06:13:36;;;;;;;16.90;4.82;;;20.70;99.90;;;;;;5072899;28;20123;-79
2022/08/26 06:16:04;;;;;;;17.15;4.32;;;20.80;99.90;;;;;;5071712;28;20040;-78
2022/08/26 06:18:33;;;;;;;10.73;4.43;;;20.80;99.90;;;;;;5071565;28;20109;-78
2022/08/26 06:21:09;;;;;;;15.82;4.03;;;20.90;99.90;;;;;;5072445;28;20044;-79
2022/08/26 06:26:19;;;;;;;11.27;3.95;;;20.90;99.90;;;;;;5071680;28;20049;-75
2022/08/26 06:28:44;;;;;;;14.65;4.20;;;20.90;99.90;;;;;;5072848;28;20377;-78
2022/08/26 06:31:10;;;;;;;16.02;4.78;;;20.90;99.90;;;;;;5070914;28;20045;-77
2022/08/26 06:33:36;;;;;;;9.82;4.03;;;20.90;99.90;;;;;;5076406;28;20480;-76
2022/08/26 06:36:02;;;;;;;13.40;3.78;;;20.90;99.90;;;;;;5068930;28;20041;-77
2022/08/26 06:38:28;;;;;;;14.95;4.47;;;20.90;99.90;;;;;;5068982;28;20515;-78
2022/08/26 06:40:56;;;;;;;15.48;4.57;;;20.90;99.90;;;;;;5069102;28;20079;-77
2022/08/26 06:43:25;;;;;;;17.75;4.72;;;20.90;99.90;;;;;;5069118;28;20044;-78
2022/08/26 06:45:51;;;;;;;12.50;4.43;;;20.90;99.90;;;;;;5069695;28;20425;-78
2022/08/26 06:48:19;;;;;;;11.07;3.83;;;20.90;99.90;;;;;;5066899;28;20107;-77
2022/08/26 06:50:45;;;;;;;11.30;4.15;;;20.90;99.90;;;;;;5068494;28;20048;-78
2022/08/26 06:53:15;;;;;;;14.35;3.85;;;20.90;99.90;;;;;;5075129;28;20028;-77
2022/08/26 06:55:43;;;;;;;16.35;4.10;;;20.90;99.90;;;;;;5040579;28;20040;-77
2022/08/26 06:58:09;;;;;;;11.68;3.85;;;20.90;99.90;;;;;;5050138;28;20052;-78
2022/08/26 07:00:35;;;;;;;17.05;4.25;;;20.90;99.90;;;;;;5048624;28;20083;-77
2022/08/26 07:03:02;;;;;;;11.98;4.05;;;20.90;99.90;;;;;;5048504;28;20511;-77
2022/08/26 07:05:27;;;;;;;12.10;3.90;;;20.90;99.90;;;;;;5067008;28;20681;-78
2022/08/26 07:07:54;;;;;;;11.65;3.97;;;20.90;99.90;;;;;;5068016;28;20119;-78
2022/08/26 07:10:19;;;;;;;10.27;4.03;;;20.90;99.90;;;;;;5068383;28;20072;-77
2022/08/26 07:12:45;;;;;;;9.80;3.42;;;20.90;99.90;;;;;;5054326;28;20064;-78
2022/08/26 07:15:11;;;;;;;13.95;4.13;;;20.90;99.90;;;;;;5071688;28;20123;-78
2022/08/26 07:17:36;;;;;;;11.38;3.67;;;20.90;99.90;;;;;;5073684;28;20123;-77
2022/08/26 07:20:06;;;;;;;16.23;3.50;;;20.80;99.90;;;;;;5071837;28;20525;-78
2022/08/26 07:22:31;;;;;;;9.07;3.05;;;20.90;99.90;;;;;;5071949;28;20048;-77
2022/08/26 07:24:57;;;;;;;13.52;4.30;;;20.90;99.90;;;;;;5071916;28;20044;-77
2022/08/26 07:27:23;;;;;;;12.55;3.00;;;20.80;99.90;;;;;;5072017;28;20063;-78
2022/08/26 07:29:48;;;;;;;13.23;3.38;;;20.80;99.90;;;;;;5071723;28;20072;-77
2022/08/26 07:32:15;;;;;;;11.82;3.63;;;20.80;99.90;;;;;;5075837;28;20032;-77
2022/08/26 07:34:42;;;;;;;15.70;2.97;;;20.80;99.90;;;;;;5054554;28;20040;-77
2022/08/26 07:37:07;;;;;;;7.85;3.13;;;20.80;99.90;;;;;;5072320;28;20111;-77
2022/08/26 07:39:33;;;;;;;10.00;3.10;;;20.80;99.90;;;;;;5071543;28;20120;-78
2022/08/26 07:42:01;;;;;;;13.05;3.45;;;20.80;99.90;;;;;;5070961;28;20063;-78
2022/08/26 07:44:27;;;;;;;13.77;3.17;;;20.80;99.90;;;;;;5071844;28;20119;-78
2022/08/26 07:46:53;;;;;;;10.05;3.22;;;20.80;99.90;;;;;;5073252;28;20040;-78
2022/08/26 07:49:21;;;;;;;9.90;2.67;;;20.80;99.90;;;;;;5073092;28;20106;-78
2022/08/26 07:51:47;;;;;;;15.52;3.30;;;20.80;99.90;;;;;;5073146;28;20041;-79
2022/08/26 07:54:13;;;;;;;9.20;3.30;;;20.70;99.90;;;;;;5070623;28;20048;-78
2022/08/26 07:56:38;;;;;;;11.00;3.80;;;20.70;99.90;;;;;;5070214;28;20032;-78
2022/08/26 07:59:04;;;;;;;9.63;3.08;;;20.70;99.90;;;;;;5070879;28;20040;-78
2022/08/26 08:01:30;;;;;;;14.25;3.30;;;20.70;99.90;;;;;;5071799;28;20044;-78
2022/08/26 08:03:56;;;;;;;11.95;3.25;;;20.70;99.90;;;;;;5070336;28;20049;-78
2022/08/26 08:06:24;;;;;;;9.50;2.78;;;20.80;99.90;;;;;;5071591;28;20051;-78
2022/08/26 08:08:50;;;;;;;9.98;2.67;;;20.80;99.90;;;;;;5071265;28;20059;-78
2022/08/26 08:11:19;;;;;;;10.77;3.00;;;20.80;99.90;;;;;;5072056;28;20053;-78
2022/08/26 08:13:46;;;;;;;15.27;4.32;;;20.80;99.90;;;;;;5071027;28;20411;-79
2022/08/26 08:16:12;;;;;;;7.05;2.05;;;20.90;99.90;;;;;;5070802;28;20163;-78
2022/08/26 08:18:38;;;;;;;11.52;2.58;;;21.00;99.90;;;;;;5071050;28;20504;-79
2022/08/26 08:21:04;;;;;;;4.70;2.40;;;21.00;99.90;;;;;;5069818;28;20500;-78
2022/08/26 08:23:30;;;;;;;5.97;2.10;;;21.10;99.90;;;;;;5069955;28;20051;-78
2022/08/26 08:26:01;;;;;;;6.82;2.00;;;21.10;99.90;;;;;;5074715;28;20044;-77
2022/08/26 08:28:27;;;;;;;8.20;2.58;;;21.30;99.90;;;;;;5074034;28;20040;-78
2022/08/26 08:30:52;;;;;;;6.68;1.92;;;21.30;99.90;;;;;;5074004;28;20460;-78
2022/08/26 08:33:18;;;;;;;9.15;2.20;;;21.20;99.90;;;;;;5066458;28;20068;-78
2022/08/26 08:35:44;;;;;;;9.05;2.25;;;21.20;99.90;;;;;;5069751;28;20094;-78
2022/08/26 08:38:10;;;;;;;8.73;1.95;;;21.20;99.90;;;;;;5070811;28;20054;-78
2022/08/26 08:40:40;;;;;;;7.00;2.13;;;21.20;99.90;;;;;;5068397;28;20036;-78
2022/08/26 08:43:12;;;;;;;9.63;2.30;;;21.20;99.90;;;;;;5068772;28;20426;-78
2022/08/26 08:45:41;;;;;;;7.93;1.65;;;21.10;99.90;;;;;;5066666;28;20101;-79
2022/08/26 08:48:18;;;;;;;8.40;1.75;;;21.10;99.90;;;;;;5066109;28;20102;-78
2022/08/26 08:50:50;;;;;;;9.88;1.98;;;21.10;99.90;;;;;;5063895;28;20050;-78
2022/08/26 08:53:37;;;;;;;5.82;1.98;;;21.10;99.90;;;;;;5064897;28;20045;-78
2022/08/26 08:56:22;;;;;;;8.60;1.90;;;21.10;99.90;;;;;;5065355;28;20063;-79
2022/08/26 08:59:03;;;;;;;4.93;1.45;;;21.20;99.90;;;;;;5069427;28;20052;-76
2022/08/26 09:01:50;;;;;;;6.90;1.80;;;21.20;99.90;;;;;;5066451;28;20044;-79
2022/08/26 09:04:21;;;;;;;6.85;1.70;;;21.30;99.90;;;;;;5067309;28;20051;-78
2022/08/26 09:06:51;;;;;;;10.07;1.65;;;21.40;99.90;;;;;;5050805;28;20047;-79
2022/08/26 09:09:32;;;;;;;4.00;1.58;;;21.50;99.90;;;;;;5066975;28;20082;-76
2022/08/26 09:11:59;;;;;;;7.55;1.77;;;21.60;99.90;;;;;;5066025;28;20059;-76
2022/08/26 09:14:26;;;;;;;7.57;1.67;;;21.70;99.90;;;;;;5070620;28;20468;-79
2022/08/26 09:17:12;;;;;;;7.85;1.30;;;21.90;99.90;;;;;;5079273;28;20032;-78
2022/08/26 09:19:40;;;;;;;6.25;1.10;;;21.90;99.90;;;;;;5069731;28;20067;-79
2022/08/26 09:22:06;;;;;;;5.45;1.67;;;21.90;99.90;;;;;;5075491;28;20235;-79
2022/08/26 09:24:34;;;;;;;6.32;1.70;;;22.00;99.90;;;;;;5089440;28;20033;-79
2022/08/26 09:27:00;;;;;;;6.93;1.10;;;21.90;99.90;;;;;;5091403;28;20056;-75
2022/08/26 09:29:29;;;;;;;8.90;1.70;;;21.90;99.90;;;;;;5090926;28;20479;-80
2022/08/26 09:32:25;;;;;;;6.53;2.22;;;21.90;99.90;;;;;;5070810;28;20092;-79
2022/08/26 09:34:54;;;;;;;5.93;1.58;;;21.90;99.90;;;;;;5070615;28;20048;-78
2022/08/26 09:37:40;;;;;;;6.47;1.42;;;21.90;99.90;;;;;;5071010;28;20487;-79
2022/08/26 09:40:27;;;;;;;6.97;1.20;;;22.00;99.90;;;;;;5054473;28;20049;-79
2022/08/26 09:43:14;;;;;;;7.18;1.33;;;22.00;99.90;;;;;;5071016;28;20040;-78
2022/08/26 09:45:42;;;;;;;6.82;1.70;;;22.10;99.90;;;;;;5079693;28;20044;-80
2022/08/26 09:48:08;;;;;;;7.45;1.30;;;22.20;99.90;;;;;;5072129;28;20128;-79
2022/08/26 09:50:35;;;;;;;6.40;1.73;;;22.30;99.90;;;;;;5072079;28;20080;-78
2022/08/26 09:53:10;;;;;;;8.68;0.98;;;22.30;99.90;;;;;;5071137;28;20466;-77
2022/08/26 09:55:38;;;;;;;8.80;1.52;;;22.40;99.90;;;;;;5070844;28;20160;-80
2022/08/26 09:58:04;;;;;;;5.05;1.50;;;22.40;99.90;;;;;;5065043;28;20076;-79
2022/08/26 10:00:36;;;;;;;6.05;1.80;;;22.40;99.90;;;;;;5076029;28;20087;-79
2022/08/26 10:03:05;;;;;;;3.15;1.20;;;22.40;99.90;;;;;;5071157;28;20044;-79
2022/08/26 10:05:53;;;;;;;10.40;1.48;;;22.30;99.90;;;;;;5069899;28;20045;-80
2022/08/26 10:08:23;;;;;;;9.00;1.70;;;22.30;99.90;;;;;;5021653;28;20107;-80
2022/08/26 10:10:49;;;;;;;4.72;1.40;;;22.20;99.90;;;;;;5070033;28;20376;-80
2022/08/26 10:13:24;;;;;;;5.85;1.30;;;22.00;99.90;;;;;;5070688;28;20071;-79
2022/08/26 10:16:12;;;;;;;11.40;1.80;;;22.00;99.90;;;;;;5073160;28;20041;-79
2022/08/26 10:19:04;;;;;;;7.03;1.35;;;21.90;99.90;;;;;;5071030;28;20052;-79
2022/08/26 10:21:51;;;;;;;10.10;1.45;;;22.00;99.90;;;;;;5069287;28;20056;-80
2022/08/26 10:24:22;;;;;;;5.88;1.60;;;21.90;99.90;;;;;;5066677;28;20040;-80
2022/08/26 10:27:04;;;;;;;6.90;1.40;;;21.90;99.90;;;;;;5071936;28;20167;-78
2022/08/26 10:29:49;;;;;;;;;;;22.00;99.90;;;;;;5067573;28;20482;-78
2022/08/26 10:32:30;;;;;;;7.68;1.40;;;22.10;99.90;;;;;;5068979;28;19916;-78
2022/08/26 10:34:55;;;;;;;4.85;1.02;;;22.30;99.90;;;;;;5068721;28;20032;-77
2022/08/26 10:37:40;;;;;;;7.57;1.50;;;22.40;99.90;;;;;;5069524;28;20129;-79
2022/08/26 10:40:14;;;;;;;6.60;1.23;;;22.50;99.90;;;;;;5069173;28;20029;-79
2022/08/26 10:43:02;;;;;;;9.80;2.10;;;22.50;99.90;;;;;;5068715;28;20133;-78
2022/08/26 10:45:30;;;;;;;8.43;1.98;;;22.60;99.90;;;;;;5069150;28;20091;-78
2022/08/26 10:48:08;;;;;;;8.40;1.45;;;22.60;99.90;;;;;;5073440;28;20052;-78
2022/08/26 10:50:38;;;;;;;6.57;1.50;;;22.60;99.90;;;;;;5074124;28;20040;-78
2022/08/26 10:53:17;;;;;;;4.57;1.10;;;22.50;99.90;;;;;;5073151;28;20048;-78
2022/08/26 10:56:08;;;;;;;10.10;1.60;;;22.50;99.90;;;;;;5072780;28;20051;-79
2022/08/26 10:58:45;;;;;;;6.70;1.17;;;22.40;99.90;;;;;;5072358;28;20390;-78
2022/08/26 11:01:44;;;;;;;5.70;1.13;;;22.20;99.90;;;;;;5072690;28;20131;-78
2022/08/26 11:04:34;;;;;;;7.63;1.40;;;22.20;99.90;;;;;;5072816;28;20103;-78
2022/08/26 11:07:29;;;;;;;6.15;1.58;;;22.10;99.90;;;;;;5067425;28;20037;-78
2022/08/26 11:09:59;;;;;;;26.73;5.63;;;22.10;99.90;;;;;;5072037;28;20083;-78
2022/08/26 11:12:33;;;;;;;6.45;1.40;;;22.10;99.90;;;;;;5056808;28;20462;-78
2022/08/26 11:15:00;;;;;;;14.50;2.15;;;22.10;99.90;;;;;;5073178;28;20707;-78
2022/08/26 11:17:49;;;;;;;17.17;3.33;;;22.00;99.90;;;;;;5073094;28;20036;-79
2022/08/26 11:20:33;;;;;;;11.40;1.63;;;22.00;99.90;;;;;;5063524;28;20078;-79
2022/08/26 11:23:25;;;;;;;7.90;1.85;;;21.80;99.90;;;;;;5073119;28;20067;-78
2022/08/26 11:26:00;;;;;;;7.20;1.00;;;21.70;99.90;;;;;;5073598;28;20568;-80
2022/08/26 11:28:36;;;;;;;7.78;1.77;;;21.60;99.90;;;;;;5072647;28;20098;-79
2022/08/26 11:31:04;;;;;;;12.40;1.65;;;21.40;99.90;;;;;;5072964;28;20571;-78
2022/08/26 11:33:49;;;;;;;5.70;1.58;;;21.40;99.90;;;;;;5074836;28;20090;-79
2022/08/26 11:36:37;;;;;;;6.13;1.40;;;21.30;99.90;;;;;;5071190;28;20170;-78
2022/08/26 11:39:50;;;;;;;6.30;1.67;;;21.30;99.90;;;;;;5072083;28;20048;-78
2022/08/26 11:42:27;;;;;;;5.35;1.45;;;21.20;99.90;;;;;;5014907;28;20053;-79
2022/08/26 11:44:55;;;;;;;4.30;1.63;;;21.20;99.90;;;;;;4998331;28;20045;-79
2022/08/26 11:47:30;;;;;;;8.15;1.10;;;21.10;99.90;;;;;;5043905;28;20058;-79
2022/08/26 11:50:06;;;;;;;4.53;1.40;;;21.10;99.90;;;;;;5071864;28;20353;-76
2022/08/26 11:52:32;;;;;;;7.78;1.50;;;21.00;99.90;;;;;;5070058;28;20045;-77
2022/08/26 11:55:10;;;;;;;7.35;1.00;;;20.90;99.90;;;;;;5070525;28;20042;-76
2022/08/26 11:58:03;;;;;;;7.20;1.13;;;20.90;99.90;;;;;;5071339;28;20036;-76
2022/08/26 12:00:43;;;;;;;7.13;1.40;;;20.80;99.90;;;;;;5067614;28;20406;-76
2022/08/26 12:03:14;;;;;;;4.32;1.20;;;20.80;99.90;;;;;;5071789;28;20105;-75
2022/08/26 12:05:48;;;;;;;6.60;1.10;;;20.80;99.90;;;;;;5074132;28;20041;-75
2022/08/26 12:08:20;;;;;;;7.95;1.15;;;20.80;99.90;;;;;;5071764;28;20552;-75
2022/08/26 12:10:47;;;;;;;7.45;1.23;;;20.80;99.90;;;;;;5071459;28;20048;-78
2022/08/26 12:13:24;;;;;;;6.82;1.25;;;20.90;99.90;;;;;;5071750;28;20510;-78
2022/08/26 12:15:56;;;;;;;3.47;0.88;;;20.90;99.90;;;;;;5071503;28;20049;-78
2022/08/26 12:18:34;;;;;;;4.53;0.77;;;21.00;99.90;;;;;;5071637;28;20109;-79
2022/08/26 12:21:11;;;;;;;3.22;0.90;;;21.10;99.90;;;;;;5072063;28;20036;-78
2022/08/26 12:23:41;;;;;;;5.15;1.20;;;21.10;99.90;;;;;;5071704;28;20506;-79
2022/08/26 12:26:19;;;;;;;6.07;1.70;;;21.10;99.90;;;;;;5071988;28;20085;-80
2022/08/26 12:29:07;;;;;;;6.47;1.50;;;21.20;99.90;;;;;;5072295;28;20083;-78
2022/08/26 12:31:42;;;;;;;7.38;1.10;;;21.10;99.90;;;;;;5070969;28;20036;-78
2022/08/26 12:34:15;;;;;;;4.22;0.93;;;21.20;99.90;;;;;;5078526;28;20036;-79
2022/08/26 12:36:55;;;;;;;5.20;1.42;;;21.30;99.90;;;;;;5063943;28;20032;-79
2022/08/26 12:39:27;;;;;;;7.80;3.55;;;21.40;99.90;;;;;;5071639;28;20048;-78
2022/08/26 12:41:56;;;;;;;8.45;1.23;;;21.60;99.90;;;;;;5070496;28;20102;-78
2022/08/26 12:44:55;;;;;;;7.22;1.45;;;21.90;99.90;;;;;;5071898;28;20052;-78
2022/08/26 12:47:32;;;;;;;16.05;2.05;;;22.10;99.90;;;;;;5072367;28;20045;-79
2022/08/26 12:50:17;;;;;;;6.20;1.15;;;22.20;99.90;;;;;;5071527;28;20080;-78
2022/08/26 12:53:03;;;;;;;2.55;1.00;;;22.30;99.90;;;;;;5063781;28;20110;-78
2022/08/26 12:55:39;;;;;;;7.10;1.35;;;22.30;99.90;;;;;;5071590;28;20391;-79
2022/08/26 12:58:30;;;;;;;4.68;1.30;;;22.30;99.90;;;;;;5071534;28;20052;-78
2022/08/26 13:01:05;;;;;;;3.55;1.30;;;22.00;99.90;;;;;;5071208;28;20040;-78